»·PEaware :: UAL1992 KBOI-KDEN

UAL1992 :: KBOI-KDEN

FLIGHT INFORMATION

Flight Status: Arrived
Operator:
United Airlines
More flights by this operator :: More flights under this callsign
Pilot: Will K. (13011)
Aircraft: Unknown
(B788)
More flights by this aircraft type
Origin: KBOI Boise Air Terminal/Gowen
United States
Destination: KDEN Denver Intl
United States
More flights between these airports :: More routes between these airports
Route: +BOI3 ROARR PIH GWEDO KAILE2
File this flight plan on PilotEdge
Remarks:
Altitude:
(Current/Filed)
35,000ft
Speed:
(Current/Filed)
350kts
Departed: 28-Jun-18 07:51 PM
Arrived: 28-Jun-18 09:16 PM
Distance/Time
Traveled:
562nm/1:25
Distance/Time
To Go:
Arrived

Flight Plot

Page will automatically refresh every two minutes.

Flight plan parsing failed; only flown route is shown


Map Options




Map Legend


Flown Route
Filed Route
Departure Airport
Arrival Airport
Navaid (VOR, NDB)
Fix

Horizontal Profiles

Position Reports

Time Latitude Longitude Heading Altitude Ground
Speed
28-Jun-18 19:30 43.567662 -116.223512 24 2847ft 0kts
28-Jun-18 19:31 43.567662 -116.223512 24 2847ft 0kts
28-Jun-18 19:32 43.567662 -116.223512 24 2847ft 0kts
28-Jun-18 19:33 43.567662 -116.223512 24 2847ft 0kts
28-Jun-18 19:34 43.567662 -116.223512 24 2847ft 0kts
28-Jun-18 19:35 43.567662 -116.223512 24 2847ft 0kts
28-Jun-18 19:36 43.567662 -116.223512 24 2847ft 0kts
28-Jun-18 19:37 43.567662 -116.223512 24 2847ft 0kts
28-Jun-18 19:38 43.567662 -116.223512 24 2847ft 0kts
28-Jun-18 19:39 43.567662 -116.223512 24 2847ft 0kts
28-Jun-18 19:40 43.567662 -116.223512 24 2847ft 0kts
28-Jun-18 19:41 43.567637 -116.223527 24 2847ft 1kts
28-Jun-18 19:42 43.567045 -116.223867 20 2847ft 2kts
28-Jun-18 19:43 43.566985 -116.223898 20 2847ft 0kts
28-Jun-18 19:44 43.567312 -116.224015 30 2847ft 2kts
28-Jun-18 19:45 43.565628 -116.219949 115 2847ft 19kts
28-Jun-18 19:46 43.563194 -116.212824 114 2847ft 18kts
28-Jun-18 19:47 43.560965 -116.206296 116 2847ft 17kts
28-Jun-18 19:48 43.559485 -116.202480 175 2847ft 0kts
28-Jun-18 19:49 43.559482 -116.202480 175 2847ft 0kts
28-Jun-18 19:50 43.558741 -116.203239 278 2847ft 5kts
28-Jun-18 19:51 43.567821 -116.229929 297 3198ft 171kts
28-Jun-18 19:52 43.585065 -116.288219 291 6792ft 164kts
28-Jun-18 19:53 43.565383 -116.334071 181 9547ft 187kts
28-Jun-18 19:54 43.532658 -116.268935 100 10982ft 265kts
28-Jun-18 19:55 43.517294 -116.153969 101 12311ft 349kts
28-Jun-18 19:56 43.495609 -116.010732 106 14133ft 404kts
28-Jun-18 19:57 43.451629 -115.866283 116 17043ft 416kts
28-Jun-18 19:58 43.404296 -115.718185 116 19537ft 431kts
28-Jun-18 19:59 43.355313 -115.565474 117 21701ft 443kts
28-Jun-18 20:00 43.304434 -115.408006 117 23666ft 456kts
28-Jun-18 20:01 43.272965 -115.236710 102 25385ft 475kts
28-Jun-18 20:02 43.247158 -115.058404 104 27069ft 483kts
28-Jun-18 20:03 43.220585 -114.876072 105 28718ft 492kts
28-Jun-18 20:04 43.193122 -114.690187 105 30375ft 502kts
28-Jun-18 20:05 43.164692 -114.500185 106 32127ft 516kts
28-Jun-18 20:06 43.135748 -114.308824 107 34631ft 512kts
28-Jun-18 20:07 43.106506 -114.117991 107 34937ft 513kts
28-Jun-18 20:08 43.076916 -113.927028 108 34927ft 513kts
28-Jun-18 20:09 43.047080 -113.736880 108 34930ft 511kts
28-Jun-18 20:10 43.016983 -113.547162 109 34939ft 510kts
28-Jun-18 20:11 42.986646 -113.358049 109 34934ft 510kts
28-Jun-18 20:12 42.956014 -113.169231 109 34927ft 509kts
28-Jun-18 20:13 42.925074 -112.980714 110 34935ft 508kts
28-Jun-18 20:14 42.893895 -112.792672 110 34945ft 508kts
28-Jun-18 20:15 42.856718 -112.607471 119 34936ft 504kts
28-Jun-18 20:16 42.801015 -112.434713 121 34936ft 496kts
28-Jun-18 20:17 42.746049 -112.262702 121 34940ft 493kts
28-Jun-18 20:18 42.690923 -112.091742 122 34925ft 493kts
28-Jun-18 20:19 42.635726 -111.921677 122 34953ft 492kts
28-Jun-18 20:20 42.580195 -111.751662 122 34962ft 492kts
28-Jun-18 20:21 42.524595 -111.582503 122 34989ft 492kts
28-Jun-18 20:22 42.468551 -111.413060 122 34999ft 492kts
28-Jun-18 20:23 42.412219 -111.243818 122 35001ft 491kts
28-Jun-18 20:24 42.355789 -111.075306 122 35013ft 491kts
28-Jun-18 20:25 42.299089 -110.907025 122 35026ft 492kts
28-Jun-18 20:26 42.242223 -110.739253 122 35025ft 492kts
28-Jun-18 20:27 42.185033 -110.571602 122 35015ft 492kts
28-Jun-18 20:28 42.127510 -110.403990 122 35023ft 493kts
28-Jun-18 20:29 42.069627 -110.236312 122 35018ft 494kts
28-Jun-18 20:30 42.011477 -110.068950 122 35006ft 494kts
28-Jun-18 20:31 41.953030 -109.901651 123 35005ft 494kts
28-Jun-18 20:32 41.894485 -109.735070 122 34998ft 494kts
28-Jun-18 20:33 41.835668 -109.568740 122 34976ft 494kts
28-Jun-18 20:34 41.776532 -109.402488 122 34969ft 494kts
28-Jun-18 20:35 41.717197 -109.236657 122 34975ft 494kts
28-Jun-18 20:36 41.657449 -109.070654 122 34975ft 494kts
28-Jun-18 20:37 41.597682 -108.905564 122 34965ft 494kts
28-Jun-18 20:38 41.537716 -108.740864 122 34958ft 494kts
28-Jun-18 20:39 41.477192 -108.575591 122 34972ft 494kts
28-Jun-18 20:40 41.426759 -108.438638 122 34966ft 494kts
28-Jun-18 20:41 41.366206 -108.275005 122 34961ft 494kts
28-Jun-18 20:42 41.303815 -108.112511 123 34968ft 493kts
28-Jun-18 20:43 41.240428 -107.950881 123 34977ft 493kts
28-Jun-18 20:44 41.176704 -107.789180 123 34980ft 493kts
28-Jun-18 20:46 41.102311 -107.601536 123 34979ft 493kts
28-Jun-18 20:47 41.038150 -107.440635 123 35004ft 493kts
28-Jun-18 20:47 40.984403 -107.306570 123 35009ft 494kts
28-Jun-18 20:48 40.919924 -107.146384 123 34547ft 489kts
28-Jun-18 20:49 40.856973 -106.990941 123 32744ft 473kts
28-Jun-18 20:50 40.795616 -106.840166 123 30867ft 461kts
28-Jun-18 20:51 40.735488 -106.693167 123 28963ft 449kts
28-Jun-18 20:52 40.676981 -106.550834 123 27260ft 435kts
28-Jun-18 20:53 40.619028 -106.410504 123 27137ft 436kts
28-Jun-18 20:54 40.560892 -106.270412 123 27164ft 436kts
28-Jun-18 20:55 40.503273 -106.132068 123 25155ft 421kts
28-Jun-18 20:56 40.448486 -105.998922 115 22916ft 409kts
28-Jun-18 20:57 40.423029 -105.852590 104 20394ft 404kts
28-Jun-18 20:58 40.400320 -105.709430 104 17836ft 396kts
28-Jun-18 20:59 40.378524 -105.572268 104 17040ft 356kts
28-Jun-18 21:00 40.358877 -105.450351 105 16983ft 339kts
28-Jun-18 21:01 40.342332 -105.331398 103 16031ft 328kts
28-Jun-18 21:02 40.327037 -105.219511 103 15762ft 290kts
28-Jun-18 21:03 40.312963 -105.118172 103 15004ft 283kts
28-Jun-18 21:04 40.299149 -105.018930 104 13377ft 270kts
28-Jun-18 21:05 40.285601 -104.922771 104 12973ft 269kts
28-Jun-18 21:06 40.271841 -104.826991 104 11655ft 263kts
28-Jun-18 21:07 40.252895 -104.737654 120 10916ft 243kts
28-Jun-18 21:08 40.209716 -104.686453 169 10019ft 202kts
28-Jun-18 21:09 40.159209 -104.683591 182 9943ft 172kts
28-Jun-18 21:10 40.112011 -104.684326 181 9625ft 171kts
28-Jun-18 21:11 40.065391 -104.684862 182 8697ft 161kts
28-Jun-18 21:12 40.021715 -104.685327 181 7841ft 148kts
28-Jun-18 21:13 39.979260 -104.685870 181 7082ft 157kts
28-Jun-18 21:14 39.935132 -104.686359 181 6221ft 158kts
28-Jun-18 21:15 39.891397 -104.686850 182 5455ft 151kts
28-Jun-18 21:16 39.878244 -104.686734 165 5444ft 4kts
28-Jun-18 21:17 39.874311 -104.684937 181 5444ft 23kts
28-Jun-18 21:18 39.867137 -104.685023 180 5444ft 23kts
28-Jun-18 21:19 39.861510 -104.684531 106 5444ft 8kts
28-Jun-18 21:20 39.861429 -104.678962 89 5444ft 19kts
28-Jun-18 21:21 39.862493 -104.676369 26 5444ft 0kts

Navigation Log

Ident Type
Flight plan parsing failed, navigation log unavailable